Time;durP1;ratioP1;P1;durP2;ratioP2;P2;SDS_P1;SDS_P2;PMS_P1;PMS_P2;Temp;Humidity;BMP_temperature;BMP_pressure;BME280_temperature;BME280_humidity;BME280_pressure;Samples;Min_cycle;Max_cycle;Signal;HPM_P1;HPM_P2
2022/02/16 00:01:52;;;;;;;14.77;12.38;;;;;;;7.00;100.00;67546.97;5014283;28;20084;-88
2022/02/16 00:04:20;;;;;;;15.90;12.93;;;;;;;;;;5027948;28;20030;-87
2022/02/16 00:06:46;;;;;;;16.02;11.40;;;;;;;;;;5019397;28;20041;-89
2022/02/16 00:09:11;;;;;;;16.02;12.07;;;;;;;7.01;100.00;67548.66;5014842;28;20114;-87
2022/02/16 00:11:36;;;;;;;17.50;13.27;;;;;;;;;;5020892;28;20033;-88
2022/02/16 00:14:04;;;;;;;16.92;12.05;;;;;;;7.03;100.00;67549.81;5039408;28;20042;-88
2022/02/16 00:16:30;;;;;;;19.60;12.98;;;;;;;7.01;100.00;67548.66;5016646;28;20129;-90
2022/02/16 00:18:55;;;;;;;15.88;11.75;;;;;;;7.05;100.00;67560.00;5012576;28;20052;-89
2022/02/16 00:21:24;;;;;;;16.98;13.00;;;;;;;7.03;100.00;67549.81;5013706;28;20045;-89
2022/02/16 00:23:49;;;;;;;16.80;13.48;;;;;;;7.04;100.00;67556.22;5020783;28;20045;-90
2022/02/16 00:26:15;;;;;;;17.50;13.65;;;;;;;;;;5016316;28;20046;-90
2022/02/16 00:28:41;;;;;;;20.23;12.55;;;;;;;7.05;100.00;67560.00;5027457;28;20033;-89
2022/02/16 00:31:08;;;;;;;17.65;12.10;;;;;;;7.05;100.00;67557.94;4995483;28;20045;-87
2022/02/16 00:33:34;;;;;;;18.65;12.30;;;;;;;;;;5003903;28;20491;-88
2022/02/16 00:35:59;;;;;;;17.05;12.70;;;;;;;7.05;100.00;67557.94;5039199;28;20057;-92
2022/02/16 00:38:25;;;;;;;16.25;11.82;;;;;;;7.04;100.00;67556.78;5023329;28;20049;-90
2022/02/16 00:40:53;;;;;;;15.80;9.73;;;;;;;;;;5026453;28;20045;-89
2022/02/16 00:43:19;;;;;;;16.27;12.27;;;;;;;7.07;100.00;67560.19;5005764;28;20050;-88
2022/02/16 00:45:52;;;;;;;17.98;12.00;;;;;;;7.11;100.00;67566.78;5026156;28;20045;-90
2022/02/16 00:48:17;;;;;;;16.58;11.65;;;;;;;;;;5030075;28;20140;-90
2022/02/16 00:50:43;;;;;;;18.10;11.35;;;;;;;;;;5024619;28;20124;-90
2022/02/16 00:53:11;;;;;;;15.15;12.27;;;;;;;7.11;100.00;67564.16;5024992;28;20521;-88
2022/02/16 00:55:37;;;;;;;17.85;12.27;;;;;;;7.13;100.00;67561.09;5026789;28;20575;-87
2022/02/16 00:58:07;;;;;;;17.40;12.85;;;;;;;7.14;100.00;67567.53;5011183;28;20041;-88
2022/02/16 01:00:34;;;;;;;19.73;10.63;;;;;;;7.11;100.00;67559.41;5021415;28;20176;-88
2022/02/16 01:03:00;;;;;;;15.35;10.40;;;;;;;7.12;100.00;67559.97;5012972;28;20114;-90
2022/02/16 01:05:27;;;;;;;16.17;12.27;;;;;;;7.13;100.00;67561.09;5026482;28;20038;-88
2022/02/16 01:07:54;;;;;;;14.35;9.95;;;;;;;;;;5017597;28;20049;-86
2022/02/16 01:10:21;;;;;;;14.00;9.60;;;;;;;7.11;100.00;67558.84;5033541;28;20441;-88
2022/02/16 01:12:46;;;;;;;16.67;10.60;;;;;;;;;;5014075;28;20034;-90
2022/02/16 01:15:12;;;;;;;19.30;13.95;;;;;;;;;;5010888;28;20397;-88
2022/02/16 01:17:37;;;;;;;16.60;11.35;;;;;;;;;;5031909;28;20037;-88
2022/02/16 01:20:03;;;;;;;15.80;11.95;;;;;;;;;;5034711;28;20129;-90
2022/02/16 01:22:28;;;;;;;16.63;12.60;;;;;;;;;;5046776;28;20124;-89
2022/02/16 01:24:54;;;;;;;18.55;12.32;;;;;;;7.09;100.00;67564.53;5032273;28;20066;-87
2022/02/16 01:27:19;;;;;;;17.90;13.60;;;;;;;7.09;100.00;67562.44;5031554;28;20391;-87
2022/02/16 01:29:45;;;;;;;19.58;12.57;;;;;;;;;;5030550;28;20041;-90
2022/02/16 01:32:10;;;;;;;20.02;12.50;;;;;;;;;;5036722;28;20553;-87
2022/02/16 01:34:35;;;;;;;18.88;12.60;;;;;;;7.09;100.00;67564.53;5031866;28;20041;-88
2022/02/16 01:37:00;;;;;;;18.42;12.80;;;;;;;;;;5043789;28;20049;-88
2022/02/16 01:39:26;;;;;;;19.95;14.65;;;;;;;7.08;100.00;67555.44;5065390;28;20110;-88
2022/02/16 01:41:53;;;;;;;20.90;14.95;;;;;;;7.07;100.00;67559.59;5046868;28;20069;-87
2022/02/16 01:44:20;;;;;;;22.67;14.20;;;;;;;;;;5022451;28;20045;-89
2022/02/16 01:46:49;;;;;;;23.65;16.10;;;;;;;;;;5022803;28;20059;-89
2022/02/16 01:49:15;;;;;;;20.60;14.50;;;;;;;7.12;100.00;67565.28;5048287;28;20041;-88
2022/02/16 01:51:40;;;;;;;20.25;16.13;;;;;;;;;;5022849;28;20055;-87
2022/02/16 01:54:05;;;;;;;22.63;14.60;;;;;;;7.14;100.00;67567.53;5014381;28;20481;-87
2022/02/16 01:56:31;;;;;;;20.85;15.70;;;;;;;;;;5025940;28;20827;-89
2022/02/16 01:58:56;;;;;;;25.98;17.60;;;;;;;;;;5019397;28;20052;-90
2022/02/16 02:01:21;;;;;;;23.77;15.90;;;;;;;7.20;100.00;67569.59;5020519;28;20045;-88
2022/02/16 02:03:47;;;;;;;25.95;17.85;;;;;;;7.22;100.00;67576.56;5032397;28;20041;-89
2022/02/16 02:06:12;;;;;;;23.60;14.80;;;;;;;7.21;100.00;67576.00;5003473;28;20116;-88
2022/02/16 02:08:37;;;;;;;21.77;15.38;;;;;;;7.23;100.00;67572.44;5028658;28;20065;-92
2022/02/16 02:11:03;;;;;;;20.95;15.25;;;;;;;;;;5007979;28;20413;-88
2022/02/16 02:13:28;;;;;;;20.30;14.68;;;;;;;7.25;100.00;67574.69;5035802;28;20129;-90
2022/02/16 02:15:54;;;;;;;21.23;14.75;;;;;;;7.27;100.00;67576.94;4998674;28;20082;-91
2022/02/16 02:18:20;;;;;;;18.17;11.70;;;;;;;7.27;100.00;67576.94;5016789;28;20071;-86
2022/02/16 02:20:45;;;;;;;19.88;14.82;;;;;;;;;;5023493;28;20465;-92
2022/02/16 02:23:11;;;;;;;19.63;12.15;;;;;;;7.30;100.00;67585.63;5031682;28;20171;-87
2022/02/16 02:25:46;;;;;;;18.33;14.32;;;;;;;7.31;100.00;67586.78;5028322;28;20042;-90
2022/02/16 02:28:11;;;;;;;19.80;13.07;;;;;;;;;;5035226;28;20045;-89
2022/02/16 02:30:36;;;;;;;17.88;11.30;;;;;;;7.34;100.00;67589.63;5029547;28;20045;-91
2022/02/16 02:33:02;;;;;;;17.63;12.23;;;;;;;7.35;100.00;67590.72;5047360;28;20041;-87
2022/02/16 02:35:27;;;;;;;17.95;12.98;;;;;;;;;;5038188;28;20579;-89
2022/02/16 02:37:52;;;;;;;20.13;13.88;;;;;;;;;;5022761;28;20054;-90
2022/02/16 02:40:18;;;;;;;20.55;14.05;;;;;;;7.38;100.00;67594.13;5019078;28;20039;-89
2022/02/16 02:42:43;;;;;;;21.00;15.02;;;;;;;7.38;100.00;67594.69;5024357;28;20045;-90
2022/02/16 02:45:09;;;;;;;17.27;12.18;;;;;;;;;;5008537;28;20181;-91
2022/02/16 02:47:34;;;;;;;18.98;14.05;;;;;;;7.40;100.00;67591.66;5023448;28;20477;-89
2022/02/16 02:50:00;;;;;;;19.60;14.13;;;;;;;7.41;100.00;67590.13;5010728;28;20398;-88
2022/02/16 02:52:25;;;;;;;20.90;14.65;;;;;;;;;;5041822;28;20045;-88
2022/02/16 02:54:51;;;;;;;20.63;12.70;;;;;;;7.45;100.00;67596.75;5036921;28;20029;-88
2022/02/16 02:57:16;;;;;;;21.25;14.38;;;;;;;;;;5019008;28;20041;-91
2022/02/16 02:59:42;;;;;;;19.55;13.40;;;;;;;7.47;100.00;67604.88;5026036;28;20397;-87
2022/02/16 03:02:07;;;;;;;17.05;11.75;;;;;;;;;;5052185;28;20041;-88
2022/02/16 03:04:32;;;;;;;18.83;13.73;;;;;;;;;;5045928;28;20409;-88
2022/02/16 03:06:58;;;;;;;18.48;13.88;;;;;;;;;;5032782;28;20124;-89
2022/02/16 03:09:23;;;;;;;18.10;12.38;;;;;;;;;;5036108;28;20037;-88
2022/02/16 03:11:48;;;;;;;17.33;13.50;;;;;;;7.51;100.00;67608.28;5030087;28;20041;-90
2022/02/16 03:14:14;;;;;;;19.58;12.38;;;;;;;7.51;100.00;67603.56;5032418;28;20037;-88
2022/02/16 03:16:46;;;;;;;17.40;12.30;;;;;;;7.50;100.00;67601.84;5012373;28;20394;-89
2022/02/16 03:19:12;;;;;;;17.60;12.57;;;;;;;7.47;100.00;67607.53;5030482;28;20037;-89
2022/02/16 03:21:37;;;;;;;15.98;12.18;;;;;;;7.49;100.00;67606.03;5020129;28;20496;-88
2022/02/16 03:24:03;;;;;;;17.00;12.00;;;;;;;7.50;100.00;67607.72;5024577;28;20041;-90
2022/02/16 03:26:29;;;;;;;15.13;11.88;;;;;;;7.50;100.00;67607.16;5034424;28;20049;-90
2022/02/16 03:28:55;;;;;;;16.75;12.57;;;;;;;;;;5012915;28;20041;-89
2022/02/16 03:31:21;;;;;;;15.07;10.38;;;;;;;;;;5024192;28;20110;-89
2022/02/16 03:33:48;;;;;;;16.30;12.73;;;;;;;;;;5045119;28;20116;-89
2022/02/16 03:36:14;;;;;;;13.60;9.25;;;;;;;;;;5027838;28;20249;-89
2022/02/16 03:38:39;;;;;;;16.73;10.93;;;;;;;7.57;100.00;67609.78;5022947;28;20203;-90
2022/02/16 03:41:05;;;;;;;16.40;12.35;;;;;;;7.58;100.00;67616.19;5005830;28;20136;-87
2022/02/16 03:43:30;;;;;;;17.10;10.60;;;;;;;;;;5052582;28;20033;-88
2022/02/16 03:45:55;;;;;;;15.00;11.60;;;;;;;;;;5023670;28;20054;-91
2022/02/16 03:48:21;;;;;;;15.30;10.85;;;;;;;7.59;100.00;67617.31;5031319;28;20050;-89
2022/02/16 03:50:46;;;;;;;14.00;10.43;;;;;;;7.59;100.00;67617.88;5012561;28;20046;-88
2022/02/16 03:53:13;;;;;;;16.48;11.18;;;;;;;7.58;100.00;67616.75;5031775;28;20486;-90
2022/02/16 03:55:39;;;;;;;15.68;10.98;;;;;;;7.60;100.00;67613.19;4997747;28;20053;-89
2022/02/16 03:58:04;;;;;;;17.35;12.38;;;;;;;;;;5022028;28;20053;-89
2022/02/16 04:00:29;;;;;;;17.60;13.40;;;;;;;7.59;100.00;67617.88;5028821;28;20053;-89
2022/02/16 04:02:56;;;;;;;15.52;12.50;;;;;;;7.58;100.00;67610.91;5032414;28;20560;-88
2022/02/16 04:05:21;;;;;;;18.05;11.23;;;;;;;7.57;100.00;67615.06;5049176;28;20570;-88
2022/02/16 04:07:47;;;;;;;17.45;11.80;;;;;;;7.59;100.00;67617.31;5037922;28;20044;-88
2022/02/16 04:10:13;;;;;;;16.85;11.30;;;;;;;7.60;100.00;67618.47;5021027;28;20048;-88
2022/02/16 04:12:39;;;;;;;15.30;12.13;;;;;;;7.60;100.00;67621.13;5023828;28;20042;-89
2022/02/16 04:15:08;;;;;;;16.02;11.38;;;;;;;7.60;100.00;67618.47;5013892;28;20447;-89
2022/02/16 04:17:34;;;;;;;15.45;10.75;;;;;;;7.61;100.00;67614.31;5008661;28;20048;-89
2022/02/16 04:19:59;;;;;;;16.70;12.02;;;;;;;7.61;100.00;67620.16;5018472;28;20046;-88
2022/02/16 04:22:24;;;;;;;14.73;10.45;;;;;;;7.59;100.00;67617.88;5012984;28;20044;-91
2022/02/16 04:24:50;;;;;;;15.07;11.93;;;;;;;7.61;100.00;67619.59;5035317;28;20047;-88
2022/02/16 04:27:15;;;;;;;15.27;11.05;;;;;;;;;;5014334;28;20176;-92
2022/02/16 04:29:41;;;;;;;13.85;10.15;;;;;;;7.62;100.00;67620.72;5028679;28;20061;-88
2022/02/16 04:32:08;;;;;;;14.43;11.27;;;;;;;7.63;100.00;67616.56;5027667;28;20057;-87
2022/02/16 04:34:33;;;;;;;15.85;11.70;;;;;;;7.62;100.00;67615.41;5011113;28;20048;-87
2022/02/16 04:36:59;;;;;;;15.38;11.25;;;;;;;;;;5022412;28;20045;-88
2022/02/16 04:39:26;;;;;;;13.25;9.30;;;;;;;7.64;100.00;67625.63;5026129;28;20045;-89
2022/02/16 04:41:52;;;;;;;14.80;11.45;;;;;;;;;;5025545;28;20120;-88
2022/02/16 04:44:17;;;;;;;12.32;9.77;;;;;;;7.64;100.00;67626.19;5025698;28;20180;-88
2022/02/16 04:46:43;;;;;;;16.05;11.38;;;;;;;7.64;100.00;67623.00;5027141;28;20048;-89
2022/02/16 04:49:11;;;;;;;11.40;9.50;;;;;;;7.63;100.00;67621.88;5025694;28;20124;-90
2022/02/16 04:51:36;;;;;;;13.93;9.70;;;;;;;7.63;100.00;67617.13;5027527;28;20045;-90
2022/02/16 04:54:04;;;;;;;13.82;9.73;;;;;;;;;;5013157;28;20048;-91
2022/02/16 04:56:30;;;;;;;13.83;9.43;;;;;;;;;;5023866;28;20053;-90
2022/02/16 04:58:56;;;;;;;11.23;8.20;;;;;;;7.63;100.00;67622.44;5017764;28;20056;-88
2022/02/16 05:01:21;;;;;;;13.73;10.18;;;;;;;7.67;100.00;67626.38;5023566;28;20443;-89
2022/02/16 05:03:47;;;;;;;11.18;9.18;;;;;;;7.67;100.00;67626.38;5004632;28;20132;-89
2022/02/16 05:06:13;;;;;;;13.93;9.00;;;;;;;7.67;100.00;67626.38;5030512;28;20052;-89
2022/02/16 05:08:39;;;;;;;11.60;9.55;;;;;;;;;;5011206;28;20487;-90
2022/02/16 05:11:04;;;;;;;11.25;8.80;;;;;;;;;;5030297;28;20044;-89
2022/02/16 05:13:30;;;;;;;13.45;9.23;;;;;;;7.69;100.00;67623.34;5024027;28;20050;-90
2022/02/16 05:15:55;;;;;;;11.25;8.63;;;;;;;7.71;100.00;67633.56;5023253;28;20072;-87
2022/02/16 05:18:22;;;;;;;9.65;7.47;;;;;;;7.71;100.00;67622.97;5020284;28;20107;-89
2022/02/16 05:20:48;;;;;;;12.10;8.93;;;;;;;7.72;100.00;67632.06;4992854;28;20167;-87
2022/02/16 05:23:18;;;;;;;11.13;8.20;;;;;;;;;;5015147;28;20511;-87
2022/02/16 05:25:49;;;;;;;10.63;7.68;;;;;;;;;;5030495;28;20049;-90
2022/02/16 05:28:14;;;;;;;10.88;9.15;;;;;;;7.73;100.00;67633.19;5026129;28;20033;-89
2022/02/16 05:30:40;;;;;;;12.00;9.20;;;;;;;;;;5008736;28;20386;-92
2022/02/16 05:33:05;;;;;;;10.65;7.57;;;;;;;7.75;100.00;67630.16;5016015;28;20073;-92
2022/02/16 05:35:32;;;;;;;9.57;7.32;;;;;;;;;;5039949;28;20037;-90
2022/02/16 05:37:58;;;;;;;10.27;7.35;;;;;;;7.76;100.00;67636.56;5010481;28;20053;-90
2022/02/16 05:40:24;;;;;;;9.07;7.22;;;;;;;;;;5009483;28;20051;-89
2022/02/16 05:42:50;;;;;;;10.02;8.32;;;;;;;;;;5028245;28;20077;-92
2022/02/16 05:45:15;;;;;;;9.50;7.65;;;;;;;;;;5025627;28;20054;-88
2022/02/16 05:47:41;;;;;;;9.93;8.02;;;;;;;;;;5011311;28;20087;-93
2022/02/16 05:50:06;;;;;;;8.43;6.90;;;;;;;7.82;100.00;67638.06;5014876;28;20445;-87
2022/02/16 05:52:32;;;;;;;10.23;7.13;;;;;;;;;;5017165;28;20034;-91
2022/02/16 05:54:57;;;;;;;9.90;7.80;;;;;;;;;;5025408;28;20049;-89
2022/02/16 05:57:22;;;;;;;10.43;7.28;;;;;;;;;;5022268;28;20133;-89
2022/02/16 05:59:47;;;;;;;10.35;8.38;;;;;;;;;;5040309;28;20029;-91
2022/02/16 06:02:14;;;;;;;10.52;7.78;;;;;;;7.88;100.00;67652.25;5025725;28;20052;-89
2022/02/16 06:04:41;;;;;;;9.15;6.35;;;;;;;7.90;100.00;67646.56;5031347;28;20116;-90
2022/02/16 06:07:08;;;;;;;10.30;8.50;;;;;;;;;;5014571;28;20054;-90
2022/02/16 06:09:39;;;;;;;9.85;7.30;;;;;;;;;;5030122;28;20045;-91
2022/02/16 06:12:07;;;;;;;8.70;7.80;;;;;;;7.93;100.00;67654.69;5013929;28;20135;-91
2022/02/16 06:14:33;;;;;;;9.35;7.03;;;;;;;;;;5037446;28;20041;-91
2022/02/16 06:16:58;;;;;;;9.55;7.75;;;;;;;7.93;100.00;67655.25;5050105;28;20072;-90
2022/02/16 06:19:27;;;;;;;10.30;7.70;;;;;;;7.94;100.00;67655.81;5028768;28;20482;-91
2022/02/16 06:21:52;;;;;;;9.98;8.48;;;;;;;7.94;100.00;67648.44;4998553;28;20045;-92
2022/02/16 06:24:19;;;;;;;9.68;8.07;;;;;;;;;;5007485;28;20506;-91
2022/02/16 06:26:46;;;;;;;9.57;7.60;;;;;;;7.92;100.00;67654.13;5009535;28;20045;-93
2022/02/16 06:29:11;;;;;;;10.88;8.65;;;;;;;;;;5045388;28;20454;-91
2022/02/16 06:31:36;;;;;;;10.82;8.93;;;;;;;7.93;100.00;67649.97;5023275;28;20072;-94
2022/02/16 06:34:01;;;;;;;9.68;8.05;;;;;;;;;;5015374;28;20046;-93
2022/02/16 06:36:27;;;;;;;9.23;7.53;;;;;;;7.93;100.00;67654.69;5007635;28;20050;-91
2022/02/16 06:38:58;;;;;;;9.90;7.18;;;;;;;7.90;100.00;67655.06;4993966;28;20124;-89
2022/02/16 06:41:23;;;;;;;10.18;8.63;;;;;;;;;;5005715;28;20052;-92
2022/02/16 06:43:55;;;;;;;11.60;8.80;;;;;;;7.91;100.00;67648.28;5031579;28;20124;-90
2022/02/16 06:46:21;;;;;;;10.20;7.32;;;;;;;7.91;100.00;67652.97;5033424;28;20041;-88
2022/02/16 06:48:54;;;;;;;9.68;7.75;;;;;;;7.90;100.00;67646.56;5018881;28;20505;-91
2022/02/16 06:51:22;;;;;;;9.88;8.18;;;;;;;7.92;100.00;67648.84;5021444;28;20057;-91
2022/02/16 06:53:55;;;;;;;7.53;5.93;;;;;;;;;;5029024;28;20042;-92
2022/02/16 06:56:23;;;;;;;10.75;7.00;;;;;;;7.95;100.00;67651.66;5011520;28;20105;-91
2022/02/16 06:58:54;;;;;;;9.05;6.80;;;;;;;7.98;100.00;67660.34;5025594;28;20398;-90
2022/02/16 07:01:19;;;;;;;8.05;5.97;;;;;;;8.00;100.00;67657.31;5021173;28;20041;-91
2022/02/16 07:03:52;;;;;;;8.15;7.35;;;;;;;;;;4996120;28;20048;-94
2022/02/16 07:06:20;;;;;;;8.23;6.57;;;;;;;;;;5027265;28;20605;-94
2022/02/16 07:08:52;;;;;;;7.50;6.35;;;;;;;8.02;100.00;67659.56;5020040;28;20136;-94
2022/02/16 07:11:18;;;;;;;7.90;6.63;;;;;;;;;;5009054;28;20513;-90
2022/02/16 07:13:44;;;;;;;7.38;6.10;;;;;;;;;;5024906;28;20451;-90
2022/02/16 07:16:11;;;;;;;7.78;6.15;;;;;;;8.06;100.00;67669.97;5017834;28;20589;-92
2022/02/16 07:18:40;;;;;;;6.68;5.07;;;;;;;8.10;100.00;67674.50;5027401;28;20047;-92
2022/02/16 07:21:06;;;;;;;8.30;6.18;;;;;;;;;;5020331;28;20084;-90
2022/02/16 07:23:32;;;;;;;7.78;5.47;;;;;;;8.16;100.00;67674.88;5012805;28;20084;-91
2022/02/16 07:25:58;;;;;;;6.40;5.22;;;;;;;8.18;100.00;67677.69;5008278;28;20056;-91
2022/02/16 07:28:25;;;;;;;7.45;6.18;;;;;;;8.20;100.00;67684.69;5028323;28;20053;-91
2022/02/16 07:30:50;;;;;;;7.57;5.22;;;;;;;8.20;100.00;67679.97;5002713;28;20068;-90
2022/02/16 07:33:17;;;;;;;6.13;4.57;;;;;;;8.22;100.00;67681.66;5002101;28;20053;-91
2022/02/16 07:35:50;;;;;;;7.28;5.75;;;;;;;8.23;100.00;67688.69;5037868;28;20046;-89
2022/02/16 07:38:15;;;;;;;7.90;4.90;;;;;;;;;;5030063;28;20064;-91
2022/02/16 07:40:41;;;;;;;6.57;5.88;;;;;;;8.26;100.00;67692.06;5021356;28;20336;-90
2022/02/16 07:43:08;;;;;;;8.90;5.40;;;;;;;;;;5024615;28;20054;-92
2022/02/16 07:45:34;;;;;;;5.63;4.70;;;;;;;;;;5026164;28;20050;-91
2022/02/16 07:48:02;;;;;;;6.55;4.47;;;;;;;8.26;100.00;67686.75;5024208;28;20096;-90
2022/02/16 07:50:29;;;;;;;6.60;4.93;;;;;;;;;;5033530;28;20050;-91
2022/02/16 07:52:58;;;;;;;6.13;5.18;;;;;;;8.28;100.00;67694.31;5022444;28;20378;-91
2022/02/16 07:55:26;;;;;;;5.80;4.43;;;;;;;8.32;100.00;67698.88;5015813;28;20049;-90
2022/02/16 07:57:51;;;;;;;6.20;5.03;;;;;;;;;;5024532;28;20045;-91
2022/02/16 08:00:16;;;;;;;5.35;3.58;;;;;;;8.34;100.00;67701.13;5024786;28;20097;-90
2022/02/16 08:02:49;;;;;;;7.40;4.88;;;;;;;8.38;100.00;67704.53;5028974;28;20051;-91
2022/02/16 08:05:16;;;;;;;5.55;3.92;;;;;;;;;;5023534;28;20380;-89
2022/02/16 08:07:42;;;;;;;4.72;3.50;;;;;;;;;;5025484;28;20037;-90
2022/02/16 08:10:16;;;;;;;4.97;3.85;;;;;;;8.41;100.00;67702.66;5024845;28;20742;-95
2022/02/16 08:12:48;;;;;;;5.47;4.45;;;;;;;;;;5029150;28;20049;-89
2022/02/16 08:15:23;;;;;;;5.25;3.85;;;;;;;8.44;100.00;67706.03;5032934;28;20041;-90
2022/02/16 08:17:49;;;;;;;5.78;4.20;;;;;;;8.46;100.00;67708.28;5015404;28;20044;-89
2022/02/16 08:20:21;;;;;;;3.83;2.60;;;;;;;;;;5025458;28;20073;-89
2022/02/16 08:22:59;;;;;;;4.47;3.22;;;;;;;8.47;100.00;67706.78;5027172;28;20065;-90
2022/02/16 08:25:25;;;;;;;4.05;2.92;;;;;;;8.48;100.00;67716.44;5027788;28;20037;-90
2022/02/16 08:27:53;;;;;;;4.22;3.38;;;;;;;8.50;100.00;67712.84;5016101;28;20049;-91
2022/02/16 08:30:18;;;;;;;5.25;2.60;;;;;;;;;;5032705;28;20033;-93
2022/02/16 08:32:46;;;;;;;5.30;3.28;;;;;;;8.53;100.00;67716.78;5019933;28;20053;-90
2022/02/16 08:35:12;;;;;;;3.45;2.58;;;;;;;8.55;100.00;67719.06;5025658;28;20041;-90
2022/02/16 08:37:40;;;;;;;4.10;2.90;;;;;;;8.58;100.00;67727.22;5021995;28;20038;-93
2022/02/16 08:40:06;;;;;;;3.45;2.28;;;;;;;;;;5024526;28;20037;-93
2022/02/16 08:42:31;;;;;;;4.07;2.65;;;;;;;8.63;100.00;67734.94;5012950;28;20041;-91
2022/02/16 08:44:58;;;;;;;2.80;1.90;;;;;;;;;;5030595;28;20060;-90
2022/02/16 08:47:25;;;;;;;3.28;2.45;;;;;;;8.65;100.00;67729.81;5027302;28;20370;-88
2022/02/16 08:49:51;;;;;;;3.95;2.70;;;;;;;;;;5010862;28;20041;-93
2022/02/16 08:52:18;;;;;;;3.10;2.30;;;;;;;;;;5013600;28;20067;-94
2022/02/16 08:54:44;;;;;;;3.53;2.15;;;;;;;8.70;100.00;67734.94;5027810;28;20077;-89
2022/02/16 08:57:09;;;;;;;3.15;2.47;;;;;;;;;;5003667;28;20041;-91
2022/02/16 08:59:35;;;;;;;3.95;2.55;;;;;;;;;;5026228;28;20091;-92
2022/02/16 09:02:01;;;;;;;2.78;2.00;;;;;;;;;;5027462;28;20056;-90
2022/02/16 09:04:26;;;;;;;3.85;2.60;;;;;;;;;;5022905;28;20034;-88
2022/02/16 09:09:40;;;;;;;3.45;2.40;;;;;;;8.81;100.00;67753.25;5027861;28;20323;-92
2022/02/16 09:12:06;;;;;;;4.07;2.90;;;;;;;8.84;100.00;67750.22;5003195;28;20045;-92
2022/02/16 09:14:33;;;;;;;3.60;2.88;;;;;;;8.86;100.00;67752.47;5027758;28;20041;-91
2022/02/16 09:16:59;;;;;;;6.82;3.05;;;;;;;;;;5015973;28;20073;-91
2022/02/16 09:19:25;;;;;;;5.30;3.25;;;;;;;8.93;100.00;67766.28;5040644;28;20046;-92
2022/02/16 09:21:52;;;;;;;3.83;2.85;;;;;;;8.93;100.00;67761.00;5038327;28;20106;-91
2022/02/16 09:24:17;;;;;;;4.05;2.88;;;;;;;;;;5033740;28;20465;-90
2022/02/16 09:26:44;;;;;;;6.05;3.72;;;;;;;9.01;100.00;67769.50;5047376;28;20041;-92
2022/02/16 09:29:10;;;;;;;4.85;3.25;;;;;;;9.03;100.00;67772.31;5035903;28;20048;-94
2022/02/16 09:31:35;;;;;;;4.18;2.70;;;;;;;9.07;100.00;67781.59;5033285;28;20037;-89
2022/02/16 09:34:01;;;;;;;5.32;3.28;;;;;;;9.09;100.00;67778.56;5032601;28;20038;-92
2022/02/16 09:36:30;;;;;;;4.38;3.28;;;;;;;;;;5031973;28;20038;-90
2022/02/16 09:38:55;;;;;;;4.68;3.28;;;;;;;;;;5014864;28;20450;-90
2022/02/16 09:41:22;;;;;;;4.38;3.20;;;;;;;9.19;100.00;67789.31;5029694;28;20041;-90
2022/02/16 09:43:49;;;;;;;6.10;3.80;;;;;;;9.22;100.00;67790.63;5044638;28;20040;-89
2022/02/16 09:46:16;;;;;;;4.50;3.63;;;;;;;9.25;100.00;67796.69;5036410;28;20069;-91
2022/02/16 09:48:41;;;;;;;7.30;4.10;;;;;;;;;;5037004;28;20033;-92
2022/02/16 09:51:06;;;;;;;5.70;3.55;;;;;;;;;;5044810;28;20044;-90
2022/02/16 09:53:32;;;;;;;4.93;3.55;;;;;;;;;;5016842;28;20501;-89
2022/02/16 09:55:58;;;;;;;6.07;4.55;;;;;;;9.36;100.00;67808.59;5042083;28;20037;-93
2022/02/16 09:58:23;;;;;;;6.75;5.15;;;;;;;9.38;100.00;67810.88;5047316;28;20481;-93
2022/02/16 10:01:02;;;;;;;5.15;3.60;;;;;;;;;;5042467;28;20041;-91
2022/02/16 10:03:27;;;;;;;;;;;;;;;;;;5030345;28;20044;-90
2022/02/16 10:05:53;;;;;;;5.30;4.07;;;;;;;;;;5029079;28;19917;-90
2022/02/16 10:08:42;;;;;;;6.57;4.75;;;;;;;9.45;100.00;67818.22;5043505;28;20041;-90
2022/02/16 10:11:08;;;;;;;5.18;3.70;;;;;;;;;;5052638;28;20053;-87
2022/02/16 10:13:34;;;;;;;6.28;4.13;;;;;;;;;;5044769;28;20052;-87
2022/02/16 10:16:00;;;;;;;6.75;4.20;;;;;;;;;;5046088;28;20063;-92
2022/02/16 10:18:26;;;;;;;5.22;3.95;;;;;;;9.58;100.00;67840.94;5047612;28;20041;-90
2022/02/16 10:21:12;;;;;;;5.75;3.55;;;;;;;9.60;100.00;67835.22;5048160;28;20052;-88
2022/02/16 10:23:43;;;;;;;5.97;3.85;;;;;;;9.63;100.00;67838.06;5046067;28;20041;-87
2022/02/16 10:26:08;;;;;;;5.68;4.50;;;;;;;;;;5050785;28;20049;-88
2022/02/16 10:28:44;;;;;;;6.40;4.38;;;;;;;9.67;100.00;67843.16;5036674;28;20084;-93
2022/02/16 10:31:10;;;;;;;6.70;4.93;;;;;;;;;;5016191;28;20053;-87
2022/02/16 10:33:39;;;;;;;5.82;4.10;;;;;;;9.71;100.00;67852.44;5047323;28;20036;-91
2022/02/16 10:36:16;;;;;;;6.00;4.10;;;;;;;9.73;100.00;67843.53;5039536;28;20068;-89
2022/02/16 10:39:06;;;;;;;5.30;3.45;;;;;;;9.77;100.00;67853.38;5030938;28;20072;-90
2022/02/16 10:41:47;;;;;;;5.32;4.28;;;;;;;9.79;100.00;67860.97;5032739;28;20038;-89
2022/02/16 10:44:23;;;;;;;6.18;4.40;;;;;;;9.82;100.00;67864.94;5020503;28;20037;-89
2022/02/16 10:46:59;;;;;;;4.75;3.53;;;;;;;9.85;100.00;67867.75;5050024;28;20055;-91
2022/02/16 10:49:27;;;;;;;5.72;4.13;;;;;;;9.87;100.00;67865.28;5039057;28;20065;-90
2022/02/16 10:52:11;;;;;;;6.65;4.38;;;;;;;9.91;100.00;67869.25;5034829;28;20040;-92
2022/02/16 10:54:37;;;;;;;5.90;4.03;;;;;;;;;;5038780;28;20053;-90
2022/02/16 10:57:03;;;;;;;5.28;3.58;;;;;;;;;;5037659;28;20045;-88
2022/02/16 10:59:28;;;;;;;5.65;3.53;;;;;;;;;;5038547;28;20398;-89
2022/02/16 11:01:55;;;;;;;7.47;4.13;;;;;;;10.03;100.00;67880.19;5030493;28;20103;-92
2022/02/16 11:04:21;;;;;;;6.25;4.78;;;;;;;;;;5044895;28;20053;-88
2022/02/16 11:06:49;;;;;;;7.13;5.07;;;;;;;10.09;100.00;67889.09;5036709;28;20075;-88
2022/02/16 11:09:20;;;;;;;7.88;5.05;;;;;;;10.11;100.00;67897.25;5037876;28;20037;-90
2022/02/16 11:11:52;;;;;;;9.00;6.10;;;;;;;10.15;100.00;67896.47;5042927;28;20075;-92
2022/02/16 11:14:24;;;;;;;7.28;4.55;;;;;;;10.20;100.00;67898.34;5027800;28;20049;-92
2022/02/16 11:16:50;;;;;;;8.38;5.38;;;;;;;10.21;100.00;67902.69;5015798;28;20037;-92
2022/02/16 11:19:37;;;;;;;6.95;4.97;;;;;;;10.26;100.00;67908.38;5037789;28;20060;-89
2022/02/16 11:22:09;;;;;;;8.23;4.95;;;;;;;10.28;100.00;67910.66;5045896;28;20572;-92
2022/02/16 11:24:43;;;;;;;13.48;5.50;;;;;;;10.31;100.00;67914.06;5044063;28;20406;-90
2022/02/16 11:27:27;;;;;;;7.50;5.22;;;;;;;10.33;100.00;67916.34;5037684;28;20048;-89
2022/02/16 11:29:54;;;;;;;7.72;5.40;;;;;;;10.36;100.00;67919.75;5035485;28;20561;-93
2022/02/16 11:32:31;;;;;;;8.88;6.13;;;;;;;10.40;100.00;67923.72;5023964;28;20053;-94
2022/02/16 11:35:24;;;;;;;8.32;5.88;;;;;;;10.43;100.00;67927.13;5024017;28;20053;-93
2022/02/16 11:38:01;;;;;;;9.35;6.25;;;;;;;;;;5033004;28;20049;-92
2022/02/16 11:40:40;;;;;;;7.47;5.80;;;;;;;10.48;100.00;67938.13;5051229;28;20137;-91
2022/02/16 11:43:06;;;;;;;9.70;6.10;;;;;;;10.50;100.00;67935.06;5029303;28;20045;-89
2022/02/16 11:45:42;;;;;;;9.82;7.30;;;;;;;10.53;100.00;67937.91;5011740;28;20052;-91
2022/02/16 11:48:09;;;;;;;8.35;4.95;;;;;;;10.55;100.00;67940.16;5028386;28;20046;-90
2022/02/16 11:50:36;;;;;;;9.85;6.53;;;;;;;;;;5022050;28;20041;-93
2022/02/16 11:53:05;;;;;;;9.15;5.90;;;;;;;10.58;100.00;67943.56;5034310;28;20049;-90
2022/02/16 11:55:31;;;;;;;;;;;;;;;10.61;100.00;67947.53;5021459;28;20125;-90
2022/02/16 11:58:14;;;;;;;8.23;4.93;;;;;;;10.58;100.00;67948.91;5015209;28;19914;-90
2022/02/16 12:00:42;;;;;;;8.30;5.30;;;;;;;10.60;100.00;67946.41;5020577;28;20045;-92
2022/02/16 12:03:17;;;;;;;7.38;4.65;;;;;;;10.66;100.00;67952.09;5025316;28;20061;-94
2022/02/16 12:05:49;;;;;;;9.55;5.18;;;;;;;;;;5023552;28;20066;-89
2022/02/16 12:08:16;;;;;;;9.00;5.50;;;;;;;10.71;100.00;67957.78;5040908;28;20040;-88
2022/02/16 12:10:42;;;;;;;8.15;5.78;;;;;;;;;;5045181;28;20120;-92
2022/02/16 12:13:08;;;;;;;9.05;5.85;;;;;;;10.74;100.00;67961.16;5051489;28;20055;-90
2022/02/16 12:15:33;;;;;;;8.98;4.90;;;;;;;10.76;100.00;67960.75;5048476;28;20034;-90
2022/02/16 12:18:00;;;;;;;10.18;4.70;;;;;;;10.79;100.00;67966.84;5026945;28;20124;-89
2022/02/16 12:20:26;;;;;;;9.93;5.65;;;;;;;10.80;100.00;67968.53;5039224;28;20053;-92
2022/02/16 12:22:52;;;;;;;8.85;5.07;;;;;;;10.82;100.00;67967.59;5033603;28;20137;-92
2022/02/16 12:25:17;;;;;;;9.20;5.85;;;;;;;10.86;100.00;67972.13;5043334;28;20048;-89
2022/02/16 12:27:43;;;;;;;7.93;4.78;;;;;;;;;;5030090;28;20114;-91
2022/02/16 12:30:09;;;;;;;9.02;5.18;;;;;;;;;;5035841;28;20041;-92